createdAt,value
2022-11-16T00:00:21.479Z,73.32
2022-11-16T00:04:35.844Z,73.35
2022-11-16T00:08:41.251Z,74.43
2022-11-16T00:12:43.222Z,70.47
2022-11-16T00:16:45.046Z,68.75
2022-11-16T00:20:47.046Z,67.15
2022-11-16T00:24:48.767Z,73.15
2022-11-16T00:28:53.145Z,67.30
2022-11-16T00:33:00.671Z,76.47
2022-11-16T00:37:02.835Z,70.82
2022-11-16T00:41:05.547Z,80.95
2022-11-16T00:45:08.213Z,78.03
2022-11-16T00:49:10.310Z,80.80
2022-11-16T00:53:15.303Z,65.07
2022-11-16T00:57:17.049Z,62.22
2022-11-16T01:01:20.793Z,56.25
2022-11-16T01:05:25.431Z,65.82
2022-11-16T01:09:27.480Z,68.35
2022-11-16T01:13:29.209Z,60.22
2022-11-16T01:17:31.259Z,60.58
2022-11-16T01:21:33.630Z,57.95
2022-11-16T01:25:35.743Z,53.95
2022-11-16T01:29:37.767Z,52.10
2022-11-16T01:33:40.451Z,49.20
2022-11-16T01:37:49.407Z,55.28
2022-11-16T01:41:51.464Z,53.00
2022-11-16T01:45:53.706Z,48.65
2022-11-16T01:50:01.536Z,53.45
2022-11-16T01:54:08.606Z,52.80
2022-11-16T01:58:18.274Z,46.70
2022-11-16T02:02:22.784Z,52.67
2022-11-16T02:06:35.662Z,44.47
2022-11-16T02:11:11.839Z,43.47
2022-11-16T02:15:28.358Z,47.63
2022-11-16T02:20:16.009Z,45.08
2022-11-16T02:24:39.713Z,45.15
2022-11-16T02:29:09.351Z,45.25
2022-11-16T02:33:18.843Z,45.53
2022-11-16T02:37:23.688Z,51.85
2022-11-16T02:41:28.686Z,50.53
2022-11-16T02:45:36.456Z,50.15
2022-11-16T02:49:46.609Z,49.58
2022-11-16T02:54:02.778Z,44.83
2022-11-16T02:58:09.760Z,57.83
2022-11-16T03:02:30.387Z,49.28
2022-11-16T03:06:39.696Z,47.72
2022-11-16T03:11:05.008Z,45.75
2022-11-16T03:15:12.076Z,51.38
2022-11-16T03:19:20.811Z,50.17
2022-11-16T03:23:22.894Z,47.53
2022-11-16T03:27:31.969Z,57.60
2022-11-16T03:31:40.025Z,49.20
2022-11-16T03:35:46.153Z,56.22
2022-11-16T03:39:49.691Z,49.60
2022-11-16T03:43:53.143Z,55.97
2022-11-16T03:47:55.859Z,54.88
2022-11-16T03:51:58.525Z,50.63
2022-11-16T03:56:00.827Z,55.70
2022-11-16T04:00:04.889Z,50.08
2022-11-16T04:04:35.379Z,55.83
2022-11-16T04:08:57.203Z,53.72
2022-11-16T04:13:19.055Z,56.65
2022-11-16T04:17:42.664Z,54.78
2022-11-16T04:22:12.264Z,54.42
2022-11-16T04:26:14.128Z,57.17
2022-11-16T04:30:16.797Z,66.80
2022-11-16T04:34:37.442Z,61.47
2022-11-16T04:38:39.683Z,74.50
2022-11-16T04:42:41.792Z,70.10
2022-11-16T04:47:03.164Z,59.35
2022-11-16T04:51:05.141Z,64.57
2022-11-16T04:55:08.955Z,73.65
2022-11-16T04:59:10.850Z,60.95
2022-11-16T05:03:13.215Z,73.90
2022-11-16T05:07:15.761Z,66.25
2022-11-16T05:11:19.983Z,60.67
2022-11-16T05:15:22.263Z,67.05
2022-11-16T05:19:43.328Z,69.57
2022-11-16T05:24:03.817Z,67.13
2022-11-16T05:28:06.517Z,74.70
2022-11-16T05:32:13.238Z,68.50
2022-11-16T05:36:15.209Z,71.13
2022-11-16T05:40:17.218Z,66.20
2022-11-16T05:44:25.849Z,88.75
2022-11-16T05:48:27.616Z,74.95
2022-11-16T05:52:29.767Z,80.05
2022-11-16T05:56:36.570Z,70.95
2022-11-16T06:00:38.575Z,61.75
2022-11-16T06:04:41.354Z,69.07
2022-11-16T06:08:44.241Z,72.43
2022-11-16T06:12:50.058Z,74.93
2022-11-16T06:16:52.777Z,69.80
2022-11-16T06:20:55.165Z,65.45
2022-11-16T06:24:57.868Z,69.95
2022-11-16T06:29:01.036Z,65.50
2022-11-16T06:33:03.756Z,60.13
2022-11-16T06:37:05.831Z,57.83
2022-11-16T06:41:08.763Z,56.65
2022-11-16T06:45:16.223Z,60.28
2022-11-16T06:49:24.652Z,61.20
2022-11-16T06:53:29.579Z,56.70
2022-11-16T06:57:35.852Z,61.28
2022-11-16T07:01:38.970Z,59.40
2022-11-16T07:05:46.483Z,55.70
2022-11-16T07:09:51.643Z,56.08
2022-11-16T07:13:54.567Z,59.67
2022-11-16T07:17:56.467Z,55.92
2022-11-16T07:21:58.585Z,60.40
2022-11-16T07:26:04.884Z,59.13
2022-11-16T07:30:14.667Z,59.10
2022-11-16T07:34:26.580Z,56.25
2022-11-16T07:38:40.046Z,59.00
2022-11-16T07:42:43.682Z,65.20
2022-11-16T07:47:01.745Z,62.03
2022-11-16T07:51:07.835Z,62.78
2022-11-16T07:55:14.671Z,67.22
2022-11-16T07:59:17.711Z,63.63
2022-11-16T08:03:24.635Z,65.28
2022-11-16T08:07:28.560Z,56.80
2022-11-16T08:11:32.057Z,60.70
2022-11-16T08:15:33.800Z,66.97
2022-11-16T08:19:40.269Z,68.72
2022-11-16T08:23:44.988Z,54.42
2022-11-16T08:27:48.203Z,67.75
2022-11-16T08:31:53.528Z,53.75
2022-11-16T08:35:58.748Z,55.40
2022-11-16T08:40:00.546Z,52.85
2022-11-16T08:44:04.086Z,46.20
2022-11-16T08:48:06.985Z,51.58
2022-11-16T08:52:11.678Z,52.03
2022-11-16T08:56:14.872Z,47.58
2022-11-16T09:00:18.003Z,49.80
2022-11-16T09:04:19.762Z,44.90
2022-11-16T09:08:21.706Z,39.63
2022-11-16T09:12:23.415Z,37.60
2022-11-16T09:16:27.816Z,35.85
2022-11-16T09:20:29.576Z,33.78
2022-11-16T09:24:31.563Z,32.30
2022-11-16T09:28:33.874Z,31.20
2022-11-16T09:32:35.988Z,28.73
2022-11-16T09:36:37.814Z,29.58
2022-11-16T09:40:45.078Z,29.15
2022-11-16T09:45:06.337Z,29.55
2022-11-16T09:49:17.525Z,24.17
2022-11-16T09:53:35.127Z,29.00
2022-11-16T09:57:38.355Z,24.00
2022-11-16T10:02:20.001Z,20.30
2022-11-16T10:06:40.369Z,22.10
2022-11-16T10:10:54.779Z,25.70
2022-11-16T10:15:34.327Z,20.25
2022-11-16T10:19:54.840Z,24.25
2022-11-16T10:24:15.214Z,19.60
2022-11-16T10:28:38.606Z,35.83
2022-11-16T10:32:59.580Z,20.58
2022-11-16T10:37:04.614Z,21.42
2022-11-16T10:41:24.334Z,26.63
2022-11-16T10:45:35.692Z,14.30
2022-11-16T10:49:49.175Z,19.30
2022-11-16T10:53:53.035Z,18.95
2022-11-16T10:58:01.002Z,14.43
2022-11-16T11:02:31.330Z,14.40
2022-11-16T11:06:33.649Z,15.18
2022-11-16T11:10:40.566Z,13.68
2022-11-16T11:14:42.524Z,13.90
2022-11-16T11:18:44.348Z,13.57
2022-11-16T11:22:55.960Z,15.05
2022-11-16T11:26:59.539Z,15.85
2022-11-16T11:31:05.252Z,13.05
2022-11-16T11:35:27.287Z,12.77
2022-11-16T11:39:33.742Z,11.20
2022-11-16T11:43:37.245Z,13.20
2022-11-16T11:47:58.511Z,18.55
2022-11-16T11:52:20.996Z,16.25
2022-11-16T11:56:24.163Z,9.60
2022-11-16T12:00:26.219Z,18.70
2022-11-16T12:05:05.624Z,10.55
2022-11-16T12:09:35.214Z,12.48
2022-11-16T12:13:58.457Z,19.10
2022-11-16T12:18:33.148Z,18.17
2022-11-16T12:23:04.199Z,13.02
2022-11-16T12:27:37.961Z,16.70
2022-11-16T12:32:21.981Z,16.08
2022-11-16T12:36:36.701Z,16.75
2022-11-16T12:41:03.208Z,11.27
2022-11-16T12:45:29.035Z,18.42
2022-11-16T12:49:52.618Z,76.68
2022-11-16T12:54:18.856Z,41.45
2022-11-16T12:58:33.011Z,37.25
2022-11-16T13:02:56.420Z,18.35
2022-11-16T13:07:11.185Z,15.00
2022-11-16T13:11:20.254Z,16.05
2022-11-16T13:15:27.715Z,16.50
2022-11-16T13:19:29.918Z,9.32
2022-11-16T13:23:32.281Z,17.17
2022-11-16T13:27:41.470Z,23.35
2022-11-16T13:32:22.280Z,16.85
2022-11-16T13:36:37.041Z,8.07
2022-11-16T13:40:40.575Z,7.78
2022-11-16T13:44:45.193Z,32.38
2022-11-16T13:48:51.861Z,25.92
2022-11-16T13:54:03.804Z,29.95
2022-11-16T13:57:29.620Z,15.43
2022-11-16T14:01:56.326Z,10.75
2022-11-16T14:05:59.555Z,10.80
2022-11-16T14:10:05.672Z,21.23
2022-11-16T14:14:13.578Z,13.32
2022-11-16T14:18:15.397Z,14.30
2022-11-16T14:22:27.979Z,20.63
2022-11-16T14:26:43.621Z,14.48
2022-11-16T14:31:00.222Z,16.05
2022-11-16T14:35:05.577Z,18.30
2022-11-16T14:39:31.911Z,12.70
2022-11-16T14:43:45.773Z,14.23
2022-11-16T14:47:48.375Z,13.50
2022-11-16T14:51:53.754Z,10.10
2022-11-16T14:56:07.383Z,11.90
2022-11-16T15:00:18.248Z,11.50
2022-11-16T15:04:23.343Z,9.43
2022-11-16T15:08:35.170Z,9.38
2022-11-16T15:12:42.532Z,9.27
2022-11-16T15:16:52.309Z,10.30
2022-11-16T15:20:54.410Z,11.13
2022-11-16T15:25:00.880Z,10.73
2022-11-16T15:29:02.854Z,11.60
2022-11-16T15:33:11.239Z,12.45
2022-11-16T15:37:15.169Z,10.60
2022-11-16T15:41:18.329Z,25.58
2022-11-16T15:45:25.538Z,16.98
2022-11-16T15:49:35.254Z,22.38
2022-11-16T15:53:42.796Z,9.60
2022-11-16T15:57:46.615Z,12.00
2022-11-16T16:01:49.130Z,9.98
2022-11-16T16:05:52.066Z,13.20
2022-11-16T16:10:13.045Z,11.63
2022-11-16T16:14:27.492Z,12.88
2022-11-16T16:18:41.554Z,11.05
2022-11-16T16:22:43.391Z,12.48
2022-11-16T16:26:45.260Z,16.52
2022-11-16T16:30:50.859Z,12.50
2022-11-16T16:34:54.951Z,11.80
2022-11-16T16:38:57.320Z,11.13
2022-11-16T16:42:59.228Z,12.65
2022-11-16T16:47:00.989Z,15.82
2022-11-16T16:51:02.908Z,13.35
2022-11-16T16:55:05.127Z,12.55
2022-11-16T16:59:07.198Z,16.25
2022-11-16T17:03:09.003Z,22.65
2022-11-16T17:07:10.979Z,12.52
2022-11-16T17:11:14.860Z,11.40
2022-11-16T17:15:19.529Z,10.35
2022-11-16T17:19:21.996Z,12.55
2022-11-16T17:23:24.071Z,7.93
2022-11-16T17:27:26.074Z,9.77
2022-11-16T17:31:28.395Z,15.02
2022-11-16T17:35:30.058Z,8.13
2022-11-16T17:39:31.927Z,7.05
2022-11-16T17:43:34.560Z,9.70
2022-11-16T17:47:36.753Z,9.80
2022-11-16T17:51:38.461Z,6.30
2022-11-16T17:55:40.383Z,7.38
2022-11-16T17:59:42.261Z,6.32
2022-11-16T18:03:44.910Z,7.75
2022-11-16T18:07:46.610Z,7.00
2022-11-16T18:11:48.554Z,6.30
2022-11-16T18:15:50.314Z,8.75
2022-11-16T18:19:52.307Z,9.30
2022-11-16T18:23:54.710Z,8.70
2022-11-16T18:27:56.658Z,10.90
2022-11-16T18:31:58.408Z,10.93
2022-11-16T18:36:00.462Z,10.77
2022-11-16T18:40:02.776Z,12.05
2022-11-16T18:44:06.279Z,9.50
2022-11-16T18:48:08.078Z,14.75
2022-11-16T18:52:10.006Z,11.13
2022-11-16T18:56:12.096Z,8.77
2022-11-16T19:00:15.194Z,11.93
2022-11-16T19:04:16.895Z,10.30
2022-11-16T19:08:18.836Z,10.88
2022-11-16T19:12:20.602Z,20.48
2022-11-16T19:16:23.889Z,10.02
2022-11-16T19:20:26.270Z,11.85
2022-11-16T19:24:28.431Z,12.43
2022-11-16T19:28:31.745Z,16.42
2022-11-16T19:32:33.818Z,12.15
2022-11-16T19:36:36.640Z,17.23
2022-11-16T19:40:39.517Z,11.48
2022-11-16T19:44:41.209Z,14.25
2022-11-16T19:48:44.437Z,14.45
2022-11-16T19:52:46.057Z,15.27
2022-11-16T19:56:53.580Z,17.00
2022-11-16T20:01:02.542Z,22.13
2022-11-16T20:05:04.787Z,19.63
2022-11-16T20:09:12.016Z,17.35
2022-11-16T20:13:14.131Z,20.57
2022-11-16T20:17:15.952Z,22.52
2022-11-16T20:21:28.093Z,23.65
2022-11-16T20:25:30.072Z,21.85
2022-11-16T20:29:31.960Z,24.40
2022-11-16T20:33:34.842Z,23.02
2022-11-16T20:37:37.152Z,22.75
2022-11-16T20:41:38.972Z,26.25
2022-11-16T20:45:41.198Z,24.65
2022-11-16T20:49:42.952Z,26.42
2022-11-16T20:53:46.742Z,26.60
2022-11-16T20:57:48.547Z,24.95
2022-11-16T21:01:53.671Z,28.25
2022-11-16T21:05:55.852Z,27.40
2022-11-16T21:10:16.568Z,35.92
2022-11-16T21:14:19.842Z,23.45
2022-11-16T21:18:24.246Z,27.77
2022-11-16T21:22:32.303Z,26.45
2022-11-16T21:26:35.387Z,26.08
2022-11-16T21:30:37.398Z,24.58
2022-11-16T21:34:40.339Z,24.08
2022-11-16T21:38:43.369Z,20.67
2022-11-16T21:42:45.051Z,20.42
2022-11-16T21:46:47.013Z,20.48
2022-11-16T21:50:58.785Z,23.38
2022-11-16T21:55:00.863Z,23.15
2022-11-16T21:59:02.518Z,19.33
2022-11-16T22:03:04.568Z,16.33
2022-11-16T22:07:24.760Z,18.77
2022-11-16T22:11:26.910Z,31.35
2022-11-16T22:15:28.536Z,17.45
2022-11-16T22:19:30.518Z,15.77
2022-11-16T22:23:33.019Z,13.13
2022-11-16T22:27:52.115Z,12.95
2022-11-16T22:31:57.231Z,13.43
2022-11-16T22:35:59.861Z,14.65
2022-11-16T22:40:01.976Z,11.90
2022-11-16T22:44:04.056Z,10.95
2022-11-16T22:48:05.877Z,10.38
2022-11-16T22:52:08.008Z,10.80
2022-11-16T22:56:10.742Z,14.43
2022-11-16T23:00:13.735Z,11.32
2022-11-16T23:04:15.705Z,10.30
2022-11-16T23:08:17.661Z,10.38
2022-11-16T23:12:38.107Z,11.15
2022-11-16T23:16:41.036Z,7.90
2022-11-16T23:21:01.496Z,7.68
2022-11-16T23:25:23.073Z,8.13
2022-11-16T23:29:24.756Z,10.02
2022-11-16T23:33:43.906Z,6.40
2022-11-16T23:38:10.781Z,10.82
2022-11-16T23:42:31.560Z,6.97
2022-11-16T23:46:33.723Z,9.10
2022-11-16T23:50:36.320Z,14.57
2022-11-16T23:54:38.072Z,6.72
2022-11-16T23:58:39.967Z,5.90
